Aérodrome :
LOGIN :

S'inscrire | Disclaimer

   EN    FR    IT 

 










Légende :    VFR   VFR Marginal   IFR   IFR Intensif   IFR Très Intensif
Visi : 
Plafond : 
>= 8 km
>= 3000ft
5 à 8 km
1000 à 3000 ft
1500m à 5 km
500 à 1000 ft
800 à 1500m
200 à 500 ft
< 800m
< 200 ft
Symboles :   Orages  Brouillard  Fortes neiges  Fortes précipitations  Vent > 20 kt
SIGMETs :   Divers  Orages  Givrage  Turbulence  Onde Orograph.  Cendres Volcan.






- Altitude de l'aérodrome : 1521 ft
- Code IATA : NCY


LFLP - Annecy

DERNIER METAR :
  • 291230Z AUTO 21005KT 170V250 CAVOK 27/14 Q1014 NOSIG

METARs EXPIRÉS :
  • 291200Z AUTO 20005KT 130V250 9999 FEW047 26/15 Q1014 NOSIG
  • 291130Z AUTO 27003KT 170V340 9999 FEW047 26/15 Q1015 NOSIG
  • 291100Z AUTO 26005KT 190V330 CAVOK 25/15 Q1015 NOSIG
  • 291030Z AUTO VRB04KT 9999 FEW042 25/15 Q1015 NOSIG
  • 291000Z AUTO VRB02KT CAVOK 25/15 Q1015 NOSIG

TAF TAF LFLP
Valide du 29 à 09h jusqu'au 30 à 09h UTC


290800Z 2909/3009 VRB03KT 9999 BKN035
BECMG 2913/2916 CAVOK



MET'MAP, la Météo Aéronautique d'un coup d'oeil ! - Copyright ORBIFLY Décembre 2007 - Disclaimer

ORBIFLY MET'MAP TEAM :

Programmation & Développement : Alexandra Zaïnal
Sur une idée originale de : Baudouin d'Aumeries
Soutien technique & logistique : Manuel Goepfert
Assistance : Marc-Olivier Méhu




SOURCES & CREDITS :

   NOAA